sensor_id;sensor_type;location;lat;lon;timestamp;P1;durP1;ratioP1;P2;durP2;ratioP2
63114;SDS011;49208;50.874;6.466;2023-04-24T06:01:38;6.45;;;3.58;;
63114;SDS011;49208;50.874;6.466;2023-04-24T06:04:03;6.93;;;3.30;;
63114;SDS011;49208;50.874;6.466;2023-04-24T06:06:29;8.32;;;4.20;;
63114;SDS011;49208;50.874;6.466;2023-04-24T06:08:55;6.57;;;4.25;;
63114;SDS011;49208;50.874;6.466;2023-04-24T06:11:20;6.97;;;3.67;;
63114;SDS011;49208;50.874;6.466;2023-04-24T06:13:46;6.78;;;3.22;;
63114;SDS011;49208;50.874;6.466;2023-04-24T06:16:11;5.47;;;2.40;;
63114;SDS011;49208;50.874;6.466;2023-04-24T06:18:37;5.95;;;2.75;;
63114;SDS011;49208;50.874;6.466;2023-04-24T06:21:03;6.38;;;2.72;;
63114;SDS011;49208;50.874;6.466;2023-04-24T06:25:57;4.93;;;2.60;;
63114;SDS011;49208;50.874;6.466;2023-04-24T06:28:22;5.25;;;2.78;;
63114;SDS011;49208;50.874;6.466;2023-04-24T06:30:48;6.22;;;3.20;;
63114;SDS011;49208;50.874;6.466;2023-04-24T06:33:13;6.43;;;2.58;;
63114;SDS011;49208;50.874;6.466;2023-04-24T06:35:38;5.18;;;2.90;;
63114;SDS011;49208;50.874;6.466;2023-04-24T06:38:04;6.78;;;3.63;;
63114;SDS011;49208;50.874;6.466;2023-04-24T06:40:29;7.05;;;3.35;;
63114;SDS011;49208;50.874;6.466;2023-04-24T06:42:55;7.53;;;3.70;;
63114;SDS011;49208;50.874;6.466;2023-04-24T06:45:20;6.70;;;3.60;;
63114;SDS011;49208;50.874;6.466;2023-04-24T06:47:46;7.95;;;3.90;;
63114;SDS011;49208;50.874;6.466;2023-04-24T06:50:12;7.35;;;4.20;;
63114;SDS011;49208;50.874;6.466;2023-04-24T06:52:37;10.32;;;4.50;;
63114;SDS011;49208;50.874;6.466;2023-04-24T06:55:03;8.60;;;3.90;;
63114;SDS011;49208;50.874;6.466;2023-04-24T06:57:29;4.90;;;2.80;;
63114;SDS011;49208;50.874;6.466;2023-04-24T06:59:54;8.68;;;3.90;;
63114;SDS011;49208;50.874;6.466;2023-04-24T07:02:20;5.95;;;2.42;;
63114;SDS011;49208;50.874;6.466;2023-04-24T07:04:45;6.25;;;2.40;;
63114;SDS011;49208;50.874;6.466;2023-04-24T07:07:11;4.78;;;2.50;;
63114;SDS011;49208;50.874;6.466;2023-04-24T07:09:39;3.67;;;1.75;;
63114;SDS011;49208;50.874;6.466;2023-04-24T07:12:06;3.58;;;1.40;;
63114;SDS011;49208;50.874;6.466;2023-04-24T07:14:32;3.00;;;1.20;;
63114;SDS011;49208;50.874;6.466;2023-04-24T07:16:57;3.42;;;1.50;;
63114;SDS011;49208;50.874;6.466;2023-04-24T07:19:23;2.97;;;1.20;;
63114;SDS011;49208;50.874;6.466;2023-04-24T07:21:48;3.30;;;1.42;;
63114;SDS011;49208;50.874;6.466;2023-04-24T07:24:14;5.22;;;1.35;;
63114;SDS011;49208;50.874;6.466;2023-04-24T07:26:40;3.00;;;1.23;;
63114;SDS011;49208;50.874;6.466;2023-04-24T07:29:06;3.20;;;1.50;;
63114;SDS011;49208;50.874;6.466;2023-04-24T07:31:31;3.38;;;1.42;;
63114;SDS011;49208;50.874;6.466;2023-04-24T07:33:57;4.63;;;1.67;;
63114;SDS011;49208;50.874;6.466;2023-04-24T07:36:25;3.47;;;1.75;;
63114;SDS011;49208;50.874;6.466;2023-04-24T07:38:51;3.67;;;1.73;;
63114;SDS011;49208;50.874;6.466;2023-04-24T07:41:16;4.78;;;2.13;;
63114;SDS011;49208;50.874;6.466;2023-04-24T07:43:42;5.03;;;2.45;;
63114;SDS011;49208;50.874;6.466;2023-04-24T07:46:08;4.05;;;1.98;;
63114;SDS011;49208;50.874;6.466;2023-04-24T07:48:35;5.32;;;2.20;;
63114;SDS011;49208;50.874;6.466;2023-04-24T07:51:01;6.10;;;2.28;;
63114;SDS011;49208;50.874;6.466;2023-04-24T07:53:26;6.03;;;2.35;;
63114;SDS011;49208;50.874;6.466;2023-04-24T07:55:53;9.10;;;3.50;;
63114;SDS011;49208;50.874;6.466;2023-04-24T07:58:20;6.03;;;2.70;;
63114;SDS011;49208;50.874;6.466;2023-04-24T08:00:46;5.60;;;2.97;;
63114;SDS011;49208;50.874;6.466;2023-04-24T08:03:11;6.43;;;2.70;;
63114;SDS011;49208;50.874;6.466;2023-04-24T08:05:37;4.43;;;2.58;;
63114;SDS011;49208;50.874;6.466;2023-04-24T08:08:03;7.35;;;3.20;;
63114;SDS011;49208;50.874;6.466;2023-04-24T08:10:28;7.45;;;2.97;;
63114;SDS011;49208;50.874;6.466;2023-04-24T08:12:54;5.95;;;2.90;;
63114;SDS011;49208;50.874;6.466;2023-04-24T08:15:20;5.43;;;2.58;;
63114;SDS011;49208;50.874;6.466;2023-04-24T08:17:46;4.55;;;2.50;;
63114;SDS011;49208;50.874;6.466;2023-04-24T08:20:11;4.63;;;2.90;;
63114;SDS011;49208;50.874;6.466;2023-04-24T08:22:40;5.93;;;2.65;;
63114;SDS011;49208;50.874;6.466;2023-04-24T08:25:07;6.00;;;2.83;;
63114;SDS011;49208;50.874;6.466;2023-04-24T08:27:32;5.60;;;3.13;;
63114;SDS011;49208;50.874;6.466;2023-04-24T08:29:58;6.85;;;2.38;;
63114;SDS011;49208;50.874;6.466;2023-04-24T08:32:26;6.13;;;2.65;;
63114;SDS011;49208;50.874;6.466;2023-04-24T08:34:54;6.15;;;3.20;;
63114;SDS011;49208;50.874;6.466;2023-04-24T08:37:22;6.03;;;3.22;;
63114;SDS011;49208;50.874;6.466;2023-04-24T08:39:48;7.68;;;3.42;;
63114;SDS011;49208;50.874;6.466;2023-04-24T08:42:15;7.13;;;3.40;;
63114;SDS011;49208;50.874;6.466;2023-04-24T08:44:41;7.53;;;3.67;;
63114;SDS011;49208;50.874;6.466;2023-04-24T08:47:07;6.18;;;3.85;;
63114;SDS011;49208;50.874;6.466;2023-04-24T08:49:33;6.28;;;3.28;;
63114;SDS011;49208;50.874;6.466;2023-04-24T08:54:27;6.93;;;3.63;;
63114;SDS011;49208;50.874;6.466;2023-04-24T08:56:53;8.70;;;4.13;;
63114;SDS011;49208;50.874;6.466;2023-04-24T08:59:28;6.75;;;3.80;;
63114;SDS011;49208;50.874;6.466;2023-04-24T09:01:54;11.70;;;3.80;;
63114;SDS011;49208;50.874;6.466;2023-04-24T09:04:21;7.80;;;3.97;;
63114;SDS011;49208;50.874;6.466;2023-04-24T09:06:49;11.63;;;4.05;;
63114;SDS011;49208;50.874;6.466;2023-04-24T09:09:16;8.93;;;4.30;;
63114;SDS011;49208;50.874;6.466;2023-04-24T09:11:42;6.70;;;3.63;;
63114;SDS011;49208;50.874;6.466;2023-04-24T09:14:09;7.80;;;3.80;;
63114;SDS011;49208;50.874;6.466;2023-04-24T09:16:35;9.15;;;5.05;;
63114;SDS011;49208;50.874;6.466;2023-04-24T09:19:00;8.23;;;4.28;;
63114;SDS011;49208;50.874;6.466;2023-04-24T09:21:30;9.18;;;4.07;;
63114;SDS011;49208;50.874;6.466;2023-04-24T09:24:01;7.05;;;4.40;;
63114;SDS011;49208;50.874;6.466;2023-04-24T09:26:29;8.63;;;4.18;;
63114;SDS011;49208;50.874;6.466;2023-04-24T09:28:59;7.38;;;3.88;;
63114;SDS011;49208;50.874;6.466;2023-04-24T09:31:26;6.80;;;3.70;;
63114;SDS011;49208;50.874;6.466;2023-04-24T09:33:54;8.05;;;4.18;;
63114;SDS011;49208;50.874;6.466;2023-04-24T09:36:31;7.13;;;4.15;;
63114;SDS011;49208;50.874;6.466;2023-04-24T09:39:07;8.38;;;4.18;;
63114;SDS011;49208;50.874;6.466;2023-04-24T09:41:35;7.90;;;4.55;;
63114;SDS011;49208;50.874;6.466;2023-04-24T09:44:13;7.28;;;4.10;;
63114;SDS011;49208;50.874;6.466;2023-04-24T09:46:49;7.80;;;4.10;;
63114;SDS011;49208;50.874;6.466;2023-04-24T09:49:26;6.97;;;4.10;;
63114;SDS011;49208;50.874;6.466;2023-04-24T09:52:14;8.77;;;4.15;;
63114;SDS011;49208;50.874;6.466;2023-04-24T09:54:40;7.18;;;3.65;;
63114;SDS011;49208;50.874;6.466;2023-04-24T09:57:07;7.63;;;3.80;;
63114;SDS011;49208;50.874;6.466;2023-04-24T09:59:34;7.38;;;3.67;;
63114;SDS011;49208;50.874;6.466;2023-04-24T10:01:59;8.07;;;3.60;;
63114;SDS011;49208;50.874;6.466;2023-04-24T10:04:26;8.02;;;3.70;;
63114;SDS011;49208;50.874;6.466;2023-04-24T10:06:53;11.70;;;4.50;;
63114;SDS011;49208;50.874;6.466;2023-04-24T10:09:21;9.02;;;4.38;;
63114;SDS011;49208;50.874;6.466;2023-04-24T10:11:49;11.90;;;6.97;;
63114;SDS011;49208;50.874;6.466;2023-04-24T10:14:18;9.15;;;3.80;;
63114;SDS011;49208;50.874;6.466;2023-04-24T10:16:45;10.13;;;5.05;;
63114;SDS011;49208;50.874;6.466;2023-04-24T10:19:14;9.02;;;5.00;;
63114;SDS011;49208;50.874;6.466;2023-04-24T10:21:41;12.23;;;4.70;;
63114;SDS011;49208;50.874;6.466;2023-04-24T10:24:11;10.40;;;5.03;;
63114;SDS011;49208;50.874;6.466;2023-04-24T10:26:41;10.43;;;6.03;;
63114;SDS011;49208;50.874;6.466;2023-04-24T10:29:07;21.23;;;12.43;;
63114;SDS011;49208;50.874;6.466;2023-04-24T10:31:37;14.02;;;8.40;;
63114;SDS011;49208;50.874;6.466;2023-04-24T10:34:04;20.90;;;10.23;;
63114;SDS011;49208;50.874;6.466;2023-04-24T10:36:30;16.70;;;8.23;;
63114;SDS011;49208;50.874;6.466;2023-04-24T10:38:57;17.63;;;9.63;;
63114;SDS011;49208;50.874;6.466;2023-04-24T10:41:25;8.75;;;5.65;;
63114;SDS011;49208;50.874;6.466;2023-04-24T10:44:03;9.40;;;4.95;;
63114;SDS011;49208;50.874;6.466;2023-04-24T10:46:30;8.73;;;4.82;;
63114;SDS011;49208;50.874;6.466;2023-04-24T10:48:56;11.48;;;4.35;;
63114;SDS011;49208;50.874;6.466;2023-04-24T10:51:42;11.65;;;4.78;;
63114;SDS011;49208;50.874;6.466;2023-04-24T10:54:27;10.80;;;4.82;;
63114;SDS011;49208;50.874;6.466;2023-04-24T10:59:52;12.65;;;5.40;;
63114;SDS011;49208;50.874;6.466;2023-04-24T11:02:38;11.93;;;4.70;;
63114;SDS011;49208;50.874;6.466;2023-04-24T11:05:05;11.88;;;4.70;;
63114;SDS011;49208;50.874;6.466;2023-04-24T11:10:56;8.30;;;3.78;;
63114;SDS011;49208;50.874;6.466;2023-04-24T11:13:27;11.05;;;5.28;;
63114;SDS011;49208;50.874;6.466;2023-04-24T11:16:26;9.38;;;5.60;;
63114;SDS011;49208;50.874;6.466;2023-04-24T11:19:00;9.55;;;5.40;;
63114;SDS011;49208;50.874;6.466;2023-04-24T11:21:30;10.25;;;5.25;;
63114;SDS011;49208;50.874;6.466;2023-04-24T11:24:29;12.77;;;5.47;;
63114;SDS011;49208;50.874;6.466;2023-04-24T11:37:26;11.13;;;6.82;;
63114;SDS011;49208;50.874;6.466;2023-04-24T11:39:59;15.52;;;6.57;;
63114;SDS011;49208;50.874;6.466;2023-04-24T11:42:24;14.55;;;8.23;;
63114;SDS011;49208;50.874;6.466;2023-04-24T11:44:53;10.07;;;5.50;;
63114;SDS011;49208;50.874;6.466;2023-04-24T11:47:27;12.70;;;7.22;;
63114;SDS011;49208;50.874;6.466;2023-04-24T11:49:56;12.77;;;6.63;;
63114;SDS011;49208;50.874;6.466;2023-04-24T11:52:22;11.47;;;5.90;;
63114;SDS011;49208;50.874;6.466;2023-04-24T11:54:48;9.40;;;5.15;;
63114;SDS011;49208;50.874;6.466;2023-04-24T11:57:15;8.40;;;5.35;;
63114;SDS011;49208;50.874;6.466;2023-04-24T11:59:41;9.60;;;5.72;;
63114;SDS011;49208;50.874;6.466;2023-04-24T12:02:06;10.43;;;5.07;;
63114;SDS011;49208;50.874;6.466;2023-04-24T12:04:38;12.52;;;5.20;;
63114;SDS011;49208;50.874;6.466;2023-04-24T12:07:05;10.38;;;4.90;;
63114;SDS011;49208;50.874;6.466;2023-04-24T12:12:26;7.97;;;3.92;;
63114;SDS011;49208;50.874;6.466;2023-04-24T12:14:53;8.23;;;3.80;;
63114;SDS011;49208;50.874;6.466;2023-04-24T12:17:30;12.15;;;4.60;;
63114;SDS011;49208;50.874;6.466;2023-04-24T12:20:03;11.52;;;5.57;;
63114;SDS011;49208;50.874;6.466;2023-04-24T12:25:12;9.27;;;4.60;;
63114;SDS011;49208;50.874;6.466;2023-04-24T12:27:46;11.02;;;5.22;;
63114;SDS011;49208;50.874;6.466;2023-04-24T12:30:15;14.18;;;6.07;;
63114;SDS011;49208;50.874;6.466;2023-04-24T12:32:42;9.23;;;4.30;;
63114;SDS011;49208;50.874;6.466;2023-04-24T12:35:09;12.57;;;5.95;;
63114;SDS011;49208;50.874;6.466;2023-04-24T12:37:34;12.50;;;4.35;;
63114;SDS011;49208;50.874;6.466;2023-04-24T12:42:32;11.57;;;4.68;;
63114;SDS011;49208;50.874;6.466;2023-04-24T12:45:07;11.18;;;4.90;;
63114;SDS011;49208;50.874;6.466;2023-04-24T12:47:33;13.30;;;5.45;;
63114;SDS011;49208;50.874;6.466;2023-04-24T12:50:00;9.98;;;5.30;;
63114;SDS011;49208;50.874;6.466;2023-04-24T12:52:27;12.02;;;6.88;;
63114;SDS011;49208;50.874;6.466;2023-04-24T12:57:20;11.80;;;6.97;;
63114;SDS011;49208;50.874;6.466;2023-04-24T12:59:46;12.35;;;5.68;;
63114;SDS011;49208;50.874;6.466;2023-04-24T13:02:11;15.32;;;6.20;;
63114;SDS011;49208;50.874;6.466;2023-04-24T13:04:37;14.02;;;6.05;;
63114;SDS011;49208;50.874;6.466;2023-04-24T13:07:02;10.80;;;6.20;;
63114;SDS011;49208;50.874;6.466;2023-04-24T13:09:28;10.43;;;5.70;;
63114;SDS011;49208;50.874;6.466;2023-04-24T13:11:53;8.88;;;5.60;;
63114;SDS011;49208;50.874;6.466;2023-04-24T13:14:19;12.45;;;5.80;;
63114;SDS011;49208;50.874;6.466;2023-04-24T13:16:45;13.45;;;6.30;;
63114;SDS011;49208;50.874;6.466;2023-04-24T13:19:10;13.15;;;7.05;;
63114;SDS011;49208;50.874;6.466;2023-04-24T13:21:35;10.32;;;6.00;;
63114;SDS011;49208;50.874;6.466;2023-04-24T13:24:04;13.95;;;6.88;;
63114;SDS011;49208;50.874;6.466;2023-04-24T13:26:34;14.85;;;6.97;;
63114;SDS011;49208;50.874;6.466;2023-04-24T13:29:00;13.30;;;7.07;;
63114;SDS011;49208;50.874;6.466;2023-04-24T13:31:25;15.00;;;6.82;;
63114;SDS011;49208;50.874;6.466;2023-04-24T13:33:51;11.43;;;6.45;;
63114;SDS011;49208;50.874;6.466;2023-04-24T13:36:16;11.45;;;6.15;;
63114;SDS011;49208;50.874;6.466;2023-04-24T13:38:42;10.10;;;5.68;;
63114;SDS011;49208;50.874;6.466;2023-04-24T13:41:09;14.65;;;6.03;;
63114;SDS011;49208;50.874;6.466;2023-04-24T13:43:34;12.52;;;6.65;;
63114;SDS011;49208;50.874;6.466;2023-04-24T13:46:00;11.48;;;7.32;;
63114;SDS011;49208;50.874;6.466;2023-04-24T13:50:53;10.48;;;5.65;;
63114;SDS011;49208;50.874;6.466;2023-04-24T13:53:18;10.20;;;5.13;;
63114;SDS011;49208;50.874;6.466;2023-04-24T13:55:43;8.02;;;4.53;;
63114;SDS011;49208;50.874;6.466;2023-04-24T13:58:09;10.38;;;6.47;;
63114;SDS011;49208;50.874;6.466;2023-04-24T14:00:35;10.73;;;5.40;;
63114;SDS011;49208;50.874;6.466;2023-04-24T14:03:00;11.25;;;6.15;;
63114;SDS011;49208;50.874;6.466;2023-04-24T14:05:26;10.80;;;5.43;;
63114;SDS011;49208;50.874;6.466;2023-04-24T14:07:51;9.63;;;5.20;;
63114;SDS011;49208;50.874;6.466;2023-04-24T14:10:18;10.50;;;6.00;;
63114;SDS011;49208;50.874;6.466;2023-04-24T14:12:43;8.18;;;5.53;;
63114;SDS011;49208;50.874;6.466;2023-04-24T14:15:09;9.27;;;4.93;;
63114;SDS011;49208;50.874;6.466;2023-04-24T14:17:35;11.50;;;6.28;;
63114;SDS011;49208;50.874;6.466;2023-04-24T14:20:00;9.07;;;5.28;;
63114;SDS011;49208;50.874;6.466;2023-04-24T14:22:26;11.63;;;4.88;;
63114;SDS011;49208;50.874;6.466;2023-04-24T14:24:52;10.00;;;4.15;;
63114;SDS011;49208;50.874;6.466;2023-04-24T14:27:17;9.25;;;4.60;;
63114;SDS011;49208;50.874;6.466;2023-04-24T14:29:42;7.75;;;4.63;;
63114;SDS011;49208;50.874;6.466;2023-04-24T14:32:10;11.80;;;5.70;;
63114;SDS011;49208;50.874;6.466;2023-04-24T14:34:35;11.65;;;5.75;;
63114;SDS011;49208;50.874;6.466;2023-04-24T14:37:01;8.43;;;4.57;;
63114;SDS011;49208;50.874;6.466;2023-04-24T14:39:26;9.15;;;5.43;;
63114;SDS011;49208;50.874;6.466;2023-04-24T14:41:52;9.25;;;5.65;;
63114;SDS011;49208;50.874;6.466;2023-04-24T14:44:17;9.90;;;5.10;;
63114;SDS011;49208;50.874;6.466;2023-04-24T14:46:42;10.05;;;4.32;;
63114;SDS011;49208;50.874;6.466;2023-04-24T14:49:08;9.90;;;4.03;;
63114;SDS011;49208;50.874;6.466;2023-04-24T14:51:35;7.63;;;4.60;;
63114;SDS011;49208;50.874;6.466;2023-04-24T14:54:00;7.25;;;4.57;;
63114;SDS011;49208;50.874;6.466;2023-04-24T14:56:26;10.52;;;4.25;;
63114;SDS011;49208;50.874;6.466;2023-04-24T14:58:52;9.25;;;4.00;;
63114;SDS011;49208;50.874;6.466;2023-04-24T15:01:17;11.00;;;4.60;;
63114;SDS011;49208;50.874;6.466;2023-04-24T15:03:43;8.60;;;5.22;;
63114;SDS011;49208;50.874;6.466;2023-04-24T15:06:08;8.80;;;5.13;;
63114;SDS011;49208;50.874;6.466;2023-04-24T15:08:33;11.20;;;5.50;;
63114;SDS011;49208;50.874;6.466;2023-04-24T15:10:59;8.15;;;5.00;;
63114;SDS011;49208;50.874;6.466;2023-04-24T15:13:24;10.52;;;5.85;;
63114;SDS011;49208;50.874;6.466;2023-04-24T15:15:50;10.15;;;5.15;;
63114;SDS011;49208;50.874;6.466;2023-04-24T15:18:15;9.15;;;4.65;;
63114;SDS011;49208;50.874;6.466;2023-04-24T15:20:40;8.32;;;4.80;;
63114;SDS011;49208;50.874;6.466;2023-04-24T15:23:09;9.98;;;5.35;;
63114;SDS011;49208;50.874;6.466;2023-04-24T15:25:35;8.50;;;5.03;;
63114;SDS011;49208;50.874;6.466;2023-04-24T15:28:01;9.60;;;5.47;;
63114;SDS011;49208;50.874;6.466;2023-04-24T15:30:27;8.68;;;4.95;;
63114;SDS011;49208;50.874;6.466;2023-04-24T15:32:52;9.77;;;5.45;;
63114;SDS011;49208;50.874;6.466;2023-04-24T15:35:18;17.02;;;5.88;;
63114;SDS011;49208;50.874;6.466;2023-04-24T15:37:44;11.18;;;5.80;;
63114;SDS011;49208;50.874;6.466;2023-04-24T15:40:09;10.10;;;4.85;;
63114;SDS011;49208;50.874;6.466;2023-04-24T15:42:38;10.27;;;5.43;;
63114;SDS011;49208;50.874;6.466;2023-04-24T15:45:04;10.05;;;5.20;;
63114;SDS011;49208;50.874;6.466;2023-04-24T15:47:29;11.68;;;5.38;;
63114;SDS011;49208;50.874;6.466;2023-04-24T15:49:55;9.80;;;5.53;;
63114;SDS011;49208;50.874;6.466;2023-04-24T15:52:22;8.07;;;4.55;;
63114;SDS011;49208;50.874;6.466;2023-04-24T15:54:48;8.13;;;4.90;;
63114;SDS011;49208;50.874;6.466;2023-04-24T15:57:14;9.30;;;4.80;;
63114;SDS011;49208;50.874;6.466;2023-04-24T15:59:39;8.60;;;4.13;;
63114;SDS011;49208;50.874;6.466;2023-04-24T16:02:05;8.75;;;4.82;;
63114;SDS011;49208;50.874;6.466;2023-04-24T16:04:34;8.77;;;4.53;;
63114;SDS011;49208;50.874;6.466;2023-04-24T16:07:00;7.00;;;4.72;;
63114;SDS011;49208;50.874;6.466;2023-04-24T16:09:26;9.50;;;4.18;;
63114;SDS011;49208;50.874;6.466;2023-04-24T16:11:51;7.28;;;4.50;;
63114;SDS011;49208;50.874;6.466;2023-04-24T16:14:16;7.82;;;4.68;;
63114;SDS011;49208;50.874;6.466;2023-04-24T16:16:42;7.47;;;4.22;;
63114;SDS011;49208;50.874;6.466;2023-04-24T16:19:07;9.43;;;5.85;;
63114;SDS011;49208;50.874;6.466;2023-04-24T16:21:33;7.93;;;4.35;;
63114;SDS011;49208;50.874;6.466;2023-04-24T16:23:58;8.05;;;5.15;;
63114;SDS011;49208;50.874;6.466;2023-04-24T16:26:24;7.53;;;4.80;;
63114;SDS011;49208;50.874;6.466;2023-04-24T16:28:50;8.27;;;4.57;;
63114;SDS011;49208;50.874;6.466;2023-04-24T16:31:16;8.05;;;5.25;;
63114;SDS011;49208;50.874;6.466;2023-04-24T16:33:41;6.70;;;4.65;;
63114;SDS011;49208;50.874;6.466;2023-04-24T16:36:06;8.82;;;4.80;;
63114;SDS011;49208;50.874;6.466;2023-04-24T16:38:33;8.40;;;4.50;;
63114;SDS011;49208;50.874;6.466;2023-04-24T16:40:59;7.40;;;4.13;;
63114;SDS011;49208;50.874;6.466;2023-04-24T16:43:24;6.95;;;4.30;;
63114;SDS011;49208;50.874;6.466;2023-04-24T16:45:51;6.85;;;4.50;;
63114;SDS011;49208;50.874;6.466;2023-04-24T16:48:16;11.05;;;5.45;;
63114;SDS011;49208;50.874;6.466;2023-04-24T16:50:42;5.88;;;4.35;;
63114;SDS011;49208;50.874;6.466;2023-04-24T16:53:08;8.23;;;4.35;;
63114;SDS011;49208;50.874;6.466;2023-04-24T16:55:33;8.40;;;5.20;;
63114;SDS011;49208;50.874;6.466;2023-04-24T16:57:58;9.05;;;5.82;;
63114;SDS011;49208;50.874;6.466;2023-04-24T17:00:24;8.63;;;4.40;;
63114;SDS011;49208;50.874;6.466;2023-04-24T17:02:49;8.85;;;4.90;;
63114;SDS011;49208;50.874;6.466;2023-04-24T17:05:15;8.20;;;4.50;;
63114;SDS011;49208;50.874;6.466;2023-04-24T17:07:40;8.48;;;5.45;;
63114;SDS011;49208;50.874;6.466;2023-04-24T17:10:06;11.18;;;5.63;;
63114;SDS011;49208;50.874;6.466;2023-04-24T17:12:33;7.60;;;4.53;;
63114;SDS011;49208;50.874;6.466;2023-04-24T17:14:58;13.68;;;4.88;;
63114;SDS011;49208;50.874;6.466;2023-04-24T17:17:24;7.90;;;4.35;;
63114;SDS011;49208;50.874;6.466;2023-04-24T17:19:49;6.65;;;4.28;;
63114;SDS011;49208;50.874;6.466;2023-04-24T17:22:15;10.32;;;5.47;;
63114;SDS011;49208;50.874;6.466;2023-04-24T17:24:41;8.63;;;4.38;;
63114;SDS011;49208;50.874;6.466;2023-04-24T17:27:06;8.30;;;4.50;;
63114;SDS011;49208;50.874;6.466;2023-04-24T17:29:32;6.82;;;3.80;;
63114;SDS011;49208;50.874;6.466;2023-04-24T17:31:57;9.50;;;4.10;;
63114;SDS011;49208;50.874;6.466;2023-04-24T17:34:23;6.43;;;3.45;;
63114;SDS011;49208;50.874;6.466;2023-04-24T17:36:48;6.43;;;3.50;;
63114;SDS011;49208;50.874;6.466;2023-04-24T17:39:13;5.47;;;3.17;;
63114;SDS011;49208;50.874;6.466;2023-04-24T17:41:40;7.47;;;3.10;;
63114;SDS011;49208;50.874;6.466;2023-04-24T17:44:06;7.00;;;3.53;;
63114;SDS011;49208;50.874;6.466;2023-04-24T17:46:32;7.47;;;3.45;;
63114;SDS011;49208;50.874;6.466;2023-04-24T17:48:58;6.30;;;3.55;;
63114;SDS011;49208;50.874;6.466;2023-04-24T17:51:23;6.18;;;2.95;;
63114;SDS011;49208;50.874;6.466;2023-04-24T17:53:48;6.75;;;2.72;;
63114;SDS011;49208;50.874;6.466;2023-04-24T17:56:14;4.53;;;2.53;;
63114;SDS011;49208;50.874;6.466;2023-04-24T17:58:39;9.40;;;4.38;;
63114;SDS011;49208;50.874;6.466;2023-04-24T18:01:05;5.10;;;3.00;;
63114;SDS011;49208;50.874;6.466;2023-04-24T18:03:30;4.50;;;2.80;;
63114;SDS011;49208;50.874;6.466;2023-04-24T18:05:56;6.97;;;3.67;;
63114;SDS011;49208;50.874;6.466;2023-04-24T18:08:21;10.15;;;4.35;;
63114;SDS011;49208;50.874;6.466;2023-04-24T18:10:46;6.90;;;3.03;;
63114;SDS011;49208;50.874;6.466;2023-04-24T18:13:12;7.65;;;3.67;;
63114;SDS011;49208;50.874;6.466;2023-04-24T18:15:38;9.27;;;3.85;;
63114;SDS011;49208;50.874;6.466;2023-04-24T18:18:07;11.35;;;6.28;;
63114;SDS011;49208;50.874;6.466;2023-04-24T18:20:33;10.68;;;5.43;;
63114;SDS011;49208;50.874;6.466;2023-04-24T18:22:58;15.20;;;7.57;;
63114;SDS011;49208;50.874;6.466;2023-04-24T18:25:24;13.65;;;6.30;;
63114;SDS011;49208;50.874;6.466;2023-04-24T18:27:52;8.45;;;4.68;;
63114;SDS011;49208;50.874;6.466;2023-04-24T18:30:21;10.88;;;4.47;;
63114;SDS011;49208;50.874;6.466;2023-04-24T18:32:50;8.93;;;6.25;;
63114;SDS011;49208;50.874;6.466;2023-04-24T18:35:17;10.15;;;6.32;;
63114;SDS011;49208;50.874;6.466;2023-04-24T18:37:43;8.05;;;5.13;;
63114;SDS011;49208;50.874;6.466;2023-04-24T18:40:10;11.68;;;6.55;;
63114;SDS011;49208;50.874;6.466;2023-04-24T18:42:36;8.68;;;5.70;;
63114;SDS011;49208;50.874;6.466;2023-04-24T18:45:02;10.20;;;5.38;;
63114;SDS011;49208;50.874;6.466;2023-04-24T18:47:29;9.32;;;5.53;;
63114;SDS011;49208;50.874;6.466;2023-04-24T18:49:54;10.43;;;6.13;;
63114;SDS011;49208;50.874;6.466;2023-04-24T18:52:20;9.27;;;5.40;;
63114;SDS011;49208;50.874;6.466;2023-04-24T18:54:46;13.77;;;6.57;;
63114;SDS011;49208;50.874;6.466;2023-04-24T18:57:12;11.27;;;6.88;;
63114;SDS011;49208;50.874;6.466;2023-04-24T18:59:38;11.02;;;5.38;;
63114;SDS011;49208;50.874;6.466;2023-04-24T19:02:03;11.20;;;5.78;;
63114;SDS011;49208;50.874;6.466;2023-04-24T19:04:28;8.73;;;5.15;;
63114;SDS011;49208;50.874;6.466;2023-04-24T19:06:54;9.63;;;5.07;;
63114;SDS011;49208;50.874;6.466;2023-04-24T19:09:19;12.10;;;4.90;;
63114;SDS011;49208;50.874;6.466;2023-04-24T19:11:45;9.93;;;5.47;;
63114;SDS011;49208;50.874;6.466;2023-04-24T19:14:10;11.45;;;5.70;;
63114;SDS011;49208;50.874;6.466;2023-04-24T19:16:35;9.23;;;5.18;;
63114;SDS011;49208;50.874;6.466;2023-04-24T19:19:01;11.30;;;5.43;;
63114;SDS011;49208;50.874;6.466;2023-04-24T19:21:26;10.80;;;5.22;;
63114;SDS011;49208;50.874;6.466;2023-04-24T19:23:52;9.32;;;4.57;;
63114;SDS011;49208;50.874;6.466;2023-04-24T19:26:20;7.93;;;4.22;;
63114;SDS011;49208;50.874;6.466;2023-04-24T19:28:47;7.90;;;4.70;;
63114;SDS011;49208;50.874;6.466;2023-04-24T19:31:13;9.50;;;3.70;;
63114;SDS011;49208;50.874;6.466;2023-04-24T19:33:38;8.60;;;4.60;;
63114;SDS011;49208;50.874;6.466;2023-04-24T19:36:03;11.13;;;4.60;;
63114;SDS011;49208;50.874;6.466;2023-04-24T19:38:29;7.07;;;3.47;;
63114;SDS011;49208;50.874;6.466;2023-04-24T19:40:55;10.57;;;4.15;;
63114;SDS011;49208;50.874;6.466;2023-04-24T19:43:20;9.93;;;4.55;;
63114;SDS011;49208;50.874;6.466;2023-04-24T19:45:45;9.55;;;4.90;;
63114;SDS011;49208;50.874;6.466;2023-04-24T19:48:11;8.05;;;3.80;;
63114;SDS011;49208;50.874;6.466;2023-04-24T19:50:37;8.88;;;4.15;;
63114;SDS011;49208;50.874;6.466;2023-04-24T19:53:02;9.45;;;5.47;;
63114;SDS011;49208;50.874;6.466;2023-04-24T19:55:28;8.85;;;4.22;;
63114;SDS011;49208;50.874;6.466;2023-04-24T19:57:53;7.25;;;3.80;;
63114;SDS011;49208;50.874;6.466;2023-04-24T20:00:19;11.15;;;3.97;;
63114;SDS011;49208;50.874;6.466;2023-04-24T20:02:45;6.90;;;4.28;;
63114;SDS011;49208;50.874;6.466;2023-04-24T20:05:10;6.50;;;3.72;;
63114;SDS011;49208;50.874;6.466;2023-04-24T20:07:35;8.13;;;4.38;;
63114;SDS011;49208;50.874;6.466;2023-04-24T20:10:01;6.40;;;3.50;;
63114;SDS011;49208;50.874;6.466;2023-04-24T20:12:26;11.00;;;5.80;;
63114;SDS011;49208;50.874;6.466;2023-04-24T20:14:51;9.68;;;4.50;;
63114;SDS011;49208;50.874;6.466;2023-04-24T20:17:17;6.45;;;3.90;;
63114;SDS011;49208;50.874;6.466;2023-04-24T20:19:43;10.98;;;4.22;;
63114;SDS011;49208;50.874;6.466;2023-04-24T20:22:08;8.95;;;4.95;;
63114;SDS011;49208;50.874;6.466;2023-04-24T20:24:34;7.07;;;4.05;;
63114;SDS011;49208;50.874;6.466;2023-04-24T20:27:00;10.05;;;3.42;;
63114;SDS011;49208;50.874;6.466;2023-04-24T20:29:26;8.38;;;3.75;;
63114;SDS011;49208;50.874;6.466;2023-04-24T20:31:52;9.07;;;4.05;;
63114;SDS011;49208;50.874;6.466;2023-04-24T20:34:17;10.52;;;4.55;;
63114;SDS011;49208;50.874;6.466;2023-04-24T20:36:42;10.13;;;4.05;;
63114;SDS011;49208;50.874;6.466;2023-04-24T20:39:08;8.82;;;4.40;;
63114;SDS011;49208;50.874;6.466;2023-04-24T20:41:33;7.07;;;4.00;;
63114;SDS011;49208;50.874;6.466;2023-04-24T20:43:59;7.78;;;3.97;;
63114;SDS011;49208;50.874;6.466;2023-04-24T20:46:25;9.23;;;4.20;;
63114;SDS011;49208;50.874;6.466;2023-04-24T20:48:50;9.30;;;4.45;;
63114;SDS011;49208;50.874;6.466;2023-04-24T20:51:16;7.68;;;4.45;;
63114;SDS011;49208;50.874;6.466;2023-04-24T20:53:43;7.93;;;4.25;;
63114;SDS011;49208;50.874;6.466;2023-04-24T20:56:09;10.15;;;4.30;;
63114;SDS011;49208;50.874;6.466;2023-04-24T20:58:35;8.18;;;3.78;;
63114;SDS011;49208;50.874;6.466;2023-04-24T21:01:01;9.35;;;3.45;;
63114;SDS011;49208;50.874;6.466;2023-04-24T21:03:26;7.88;;;4.15;;
63114;SDS011;49208;50.874;6.466;2023-04-24T21:05:52;7.05;;;3.45;;
63114;SDS011;49208;50.874;6.466;2023-04-24T21:08:17;9.27;;;4.55;;
63114;SDS011;49208;50.874;6.466;2023-04-24T21:10:42;8.60;;;3.55;;
63114;SDS011;49208;50.874;6.466;2023-04-24T21:13:08;6.50;;;4.00;;
63114;SDS011;49208;50.874;6.466;2023-04-24T21:15:33;6.00;;;3.90;;